createdAt,value
2022-12-28T07:34:23.468Z,16.90
2022-12-28T07:49:28.081Z,18.60
2022-12-28T08:04:32.681Z,19.40
2022-12-28T08:19:37.378Z,19.70
2022-12-28T08:34:41.909Z,19.90
2022-12-28T08:49:46.451Z,20.00
2022-12-28T09:04:50.993Z,20.00
2022-12-28T09:19:55.513Z,20.00
2022-12-28T12:51:31.403Z,17.70
2022-12-28T13:06:39.543Z,19.70
2022-12-28T13:21:46.060Z,20.80
2022-12-28T13:36:53.749Z,21.30
2022-12-28T13:51:58.483Z,21.60
2022-12-28T14:07:02.998Z,21.80
2022-12-28T14:37:39.912Z,22.20
2022-12-28T14:52:47.165Z,22.60
2022-12-28T15:07:51.885Z,22.60
2022-12-28T15:22:56.690Z,22.60
2022-12-28T15:38:01.334Z,22.60
2022-12-28T15:53:05.839Z,22.50
2022-12-28T16:08:10.378Z,22.50
2022-12-28T16:23:14.963Z,22.50
2022-12-28T16:38:21.054Z,22.50
2022-12-28T16:53:25.707Z,22.40
2022-12-28T17:08:30.541Z,22.40
2022-12-28T17:23:35.138Z,22.40
2022-12-28T17:38:39.673Z,22.30
2022-12-28T17:53:44.200Z,22.30
2022-12-28T18:08:48.760Z,22.30
2022-12-28T18:23:54.159Z,22.30
2022-12-28T18:38:58.708Z,22.30
2022-12-28T18:54:03.262Z,22.20
2022-12-28T19:09:09.322Z,22.20
2022-12-28T19:24:15.921Z,22.20
2022-12-28T19:39:20.474Z,22.20
2022-12-28T19:54:25.146Z,22.10
2022-12-28T20:09:29.839Z,22.10
2022-12-28T20:24:34.378Z,22.00
2022-12-28T20:39:39.178Z,22.00
2022-12-28T20:54:43.777Z,22.00
2022-12-28T21:09:50.743Z,22.00
